Time;durP1;ratioP1;P1;durP2;ratioP2;P2;SDS_P1;SDS_P2;PMS_P1;PMS_P2;Temp;Humidity;BMP_temperature;BMP_pressure;BME280_temperature;BME280_humidity;BME280_pressure;Samples;Min_cycle;Max_cycle;Signal;HPM_P1;HPM_P2
2023/07/09 00:00:49;;;;;;;;;;;17.30;69.40;;;;;;5049162;28;19956;-72
2023/07/09 00:03:14;;;;;;;;;;;17.30;69.40;;;;;;5049292;28;19924;-72
2023/07/09 00:05:40;;;;;;;;;;;17.30;69.30;;;;;;5049149;28;19916;-72
2023/07/09 00:08:14;;;;;;;;;;;17.30;69.20;;;;;;5049006;28;19919;-71
2023/07/09 00:10:40;;;;;;;;;;;17.30;69.20;;;;;;5049081;28;19994;-72
2023/07/09 00:13:07;;;;;;;;;;;17.30;69.20;;;;;;5049033;28;19962;-72
2023/07/09 00:15:32;;;;;;;;;;;17.30;69.20;;;;;;5048921;28;19916;-71
2023/07/09 00:18:00;;;;;;;;;;;17.30;69.30;;;;;;5048619;28;20130;-72
2023/07/09 00:20:25;;;;;;;;;;;17.30;69.20;;;;;;5047289;28;20083;-72
2023/07/09 00:22:54;;;;;;;;;;;17.30;69.20;;;;;;5048539;28;20011;-71
2023/07/09 00:25:20;;;;;;;;;;;17.30;69.30;;;;;;5048836;28;19924;-72
2023/07/09 00:27:48;;;;;;;;;;;17.30;69.30;;;;;;5047412;28;20364;-72
2023/07/09 00:30:18;;;;;;;;;;;17.30;69.40;;;;;;5047677;28;20386;-72
2023/07/09 00:32:43;;;;;;;;;;;17.30;69.40;;;;;;5048619;28;20359;-72
2023/07/09 00:35:10;;;;;;;;;;;17.20;69.40;;;;;;5048713;28;19964;-72
2023/07/09 00:37:35;;;;;;;;;;;17.20;69.40;;;;;;5048563;28;19913;-72
2023/07/09 00:40:01;;;;;;;;;;;17.30;69.50;;;;;;5048719;28;20266;-71
2023/07/09 00:42:26;;;;;;;;;;;17.30;69.40;;;;;;5048450;28;19974;-72
2023/07/09 00:44:53;;;;;;;;;;;17.40;69.30;;;;;;5049032;28;20357;-72
2023/07/09 00:47:21;;;;;;;;;;;17.40;69.10;;;;;;5048535;28;19952;-71
2023/07/09 00:49:47;;;;;;;;;;;17.40;68.90;;;;;;5048740;28;19920;-72
2023/07/09 00:52:22;;;;;;;;;;;17.40;68.90;;;;;;5048517;28;20268;-72
2023/07/09 00:54:50;;;;;;;;;;;17.30;68.80;;;;;;5048411;28;19909;-71
2023/07/09 00:57:21;;;;;;;;;;;17.20;68.80;;;;;;5048296;28;20254;-72
2023/07/09 00:59:49;;;;;;;;;;;17.10;69.00;;;;;;5048147;28;19917;-71
2023/07/09 01:02:15;;;;;;;;;;;17.10;69.10;;;;;;5048070;28;19920;-72
2023/07/09 01:04:41;;;;;;;;;;;17.00;69.20;;;;;;5046659;28;20365;-72
2023/07/09 01:07:07;;;;;;;;;;;17.00;69.20;;;;;;5048128;28;20288;-72
2023/07/09 01:09:35;;;;;;;;;;;16.90;69.10;;;;;;5047718;28;19962;-72
2023/07/09 01:12:04;;;;;;;;;;;16.80;69.20;;;;;;5048313;28;19913;-72
2023/07/09 01:14:31;;;;;;;;;;;16.70;69.30;;;;;;5046787;28;19913;-72
2023/07/09 01:17:00;;;;;;;;;;;16.70;69.30;;;;;;5047949;28;19919;-72
2023/07/09 01:19:28;;;;;;;;;;;16.60;69.20;;;;;;5048007;28;19958;-72
2023/07/09 01:22:00;;;;;;;;;;;16.60;69.20;;;;;;5046840;28;19916;-72
2023/07/09 01:24:44;;;;;;;;;;;16.50;69.20;;;;;;5046936;28;19920;-72
2023/07/09 01:27:10;;;;;;;;;;;16.50;69.10;;;;;;5048010;28;19919;-72
2023/07/09 01:29:36;;;;;;;;;;;16.50;69.10;;;;;;5046464;28;19927;-72
2023/07/09 01:32:03;;;;;;;;;;;16.40;69.10;;;;;;5047932;28;20193;-72
2023/07/09 01:34:30;;;;;;;;;;;16.30;69.10;;;;;;5047249;28;19920;-72
2023/07/09 01:36:56;;;;;;;;;;;16.20;69.20;;;;;;5047910;28;20357;-72
2023/07/09 01:39:21;;;;;;;;;;;16.00;69.30;;;;;;5047854;28;19968;-72
2023/07/09 01:41:48;;;;;;;;;;;16.00;69.40;;;;;;5047786;28;20384;-72
2023/07/09 01:44:14;;;;;;;;;;;16.00;69.40;;;;;;5046601;28;20333;-71
2023/07/09 01:46:39;;;;;;;;;;;16.00;69.40;;;;;;5046425;28;19913;-71
2023/07/09 01:49:07;;;;;;;;;;;15.90;69.40;;;;;;5047428;28;19913;-71
2023/07/09 01:51:33;;;;;;;;;;;15.90;69.60;;;;;;5047495;28;19920;-71
2023/07/09 01:53:59;;;;;;;;;;;15.80;69.50;;;;;;5047463;28;19913;-71
2023/07/09 01:56:25;;;;;;;;;;;15.90;69.60;;;;;;5047580;28;20282;-71
2023/07/09 01:58:51;;;;;;;;;;;15.90;69.50;;;;;;5046173;28;19920;-71
2023/07/09 02:01:19;;;;;;;;;;;15.90;69.50;;;;;;5047447;28;19921;-71
2023/07/09 02:03:45;;;;;;;;;;;15.90;69.50;;;;;;5047623;28;19939;-71
2023/07/09 02:06:11;;;;;;;;;;;15.90;69.50;;;;;;5047423;28;19912;-71
2023/07/09 02:08:37;;;;;;;;;;;15.90;69.40;;;;;;5047543;28;19986;-71
2023/07/09 02:11:03;;;;;;;;;;;15.80;69.20;;;;;;5047550;28;19917;-71
2023/07/09 02:13:28;;;;;;;;;;;15.70;69.20;;;;;;5047440;28;19916;-71
2023/07/09 02:15:54;;;;;;;;;;;15.50;69.20;;;;;;5047497;28;19939;-71
2023/07/09 02:18:19;;;;;;;;;;;15.40;69.40;;;;;;5047380;28;20389;-71
2023/07/09 02:20:45;;;;;;;;;;;15.30;69.40;;;;;;5047463;28;20012;-71
2023/07/09 02:23:11;;;;;;;;;;;15.30;69.50;;;;;;5047480;28;19952;-71
2023/07/09 02:25:37;;;;;;;;;;;15.20;69.40;;;;;;5047365;28;19971;-71
2023/07/09 02:28:03;;;;;;;;;;;15.20;69.40;;;;;;5047364;28;19921;-71
2023/07/09 02:30:28;;;;;;;;;;;15.10;69.50;;;;;;5047651;28;19909;-71
2023/07/09 02:32:54;;;;;;;;;;;15.10;69.60;;;;;;5047303;28;19913;-71
2023/07/09 02:35:22;;;;;;;;;;;15.10;69.60;;;;;;5047144;28;19913;-71
2023/07/09 02:37:47;;;;;;;;;;;15.10;69.50;;;;;;5047407;28;19915;-71
2023/07/09 02:40:15;;;;;;;;;;;15.10;69.50;;;;;;5047440;28;20265;-71
2023/07/09 02:42:41;;;;;;;;;;;15.10;69.50;;;;;;5045908;28;19909;-71
2023/07/09 02:45:06;;;;;;;;;;;15.10;69.40;;;;;;5048215;28;19920;-71
2023/07/09 02:47:32;;;;;;;;;;;15.00;69.30;;;;;;5050599;28;19909;-71
2023/07/09 02:49:58;;;;;;;;;;;15.00;69.30;;;;;;5050856;28;19917;-71
2023/07/09 02:52:23;;;;;;;;;;;14.90;69.40;;;;;;5051023;28;20358;-71
2023/07/09 02:54:49;;;;;;;;;;;14.90;69.30;;;;;;5050758;28;19917;-71
2023/07/09 02:57:14;;;;;;;;;;;14.90;69.20;;;;;;5050757;28;19909;-72
2023/07/09 02:59:40;;;;;;;;;;;14.80;69.10;;;;;;5049116;28;19924;-72
2023/07/09 03:02:06;;;;;;;;;;;14.70;69.30;;;;;;5050352;28;20003;-71
2023/07/09 03:04:31;;;;;;;;;;;14.70;69.40;;;;;;5050413;28;19947;-71
2023/07/09 03:06:57;;;;;;;;;;;14.70;69.40;;;;;;5050450;28;19913;-71
2023/07/09 03:09:23;;;;;;;;;;;14.70;69.50;;;;;;5050143;28;20356;-71
2023/07/09 03:11:48;;;;;;;;;;;14.70;69.40;;;;;;5050443;28;19915;-71
2023/07/09 03:14:14;;;;;;;;;;;14.60;69.50;;;;;;5050195;28;20305;-71
2023/07/09 03:16:40;;;;;;;;;;;14.60;69.40;;;;;;5049983;28;19912;-71
2023/07/09 03:19:05;;;;;;;;;;;14.60;69.40;;;;;;5049891;28;19920;-71
2023/07/09 03:21:32;;;;;;;;;;;14.50;69.40;;;;;;5048866;28;19920;-71
2023/07/09 03:23:57;;;;;;;;;;;14.50;69.40;;;;;;5050204;28;19912;-71
2023/07/09 03:26:25;;;;;;;;;;;14.40;69.50;;;;;;5050171;28;19908;-71
2023/07/09 03:28:51;;;;;;;;;;;14.30;69.60;;;;;;5050013;28;19916;-71
2023/07/09 03:31:16;;;;;;;;;;;14.30;69.60;;;;;;5050147;28;19909;-71
2023/07/09 03:33:42;;;;;;;;;;;14.30;69.50;;;;;;5050312;28;19917;-71
2023/07/09 03:36:07;;;;;;;;;;;14.30;69.40;;;;;;5050068;28;19912;-71
2023/07/09 03:38:33;;;;;;;;;;;14.30;69.50;;;;;;5049838;28;19917;-71
2023/07/09 03:40:59;;;;;;;;;;;14.30;69.40;;;;;;5050153;28;19970;-71
2023/07/09 03:43:25;;;;;;;;;;;14.20;69.30;;;;;;5049765;28;19908;-71
2023/07/09 03:45:51;;;;;;;;;;;14.20;69.50;;;;;;5049807;28;20131;-71
2023/07/09 03:48:17;;;;;;;;;;;14.20;69.50;;;;;;5049756;28;19979;-71
2023/07/09 03:50:43;;;;;;;;;;;14.30;69.60;;;;;;5049695;28;20062;-71
2023/07/09 03:53:09;;;;;;;;;;;14.30;69.50;;;;;;5049975;28;19936;-71
2023/07/09 03:55:35;;;;;;;;;;;14.30;69.50;;;;;;5048451;28;20369;-71
2023/07/09 03:58:02;;;;;;;;;;;14.40;69.50;;;;;;5049068;28;19935;-71
2023/07/09 04:00:28;;;;;;;;;;;14.40;69.40;;;;;;5049506;28;20331;-71
2023/07/09 04:02:56;;;;;;;;;;;14.40;69.30;;;;;;5049188;28;19921;-71
2023/07/09 04:05:22;;;;;;;;;;;14.50;69.30;;;;;;5049465;28;19920;-71
2023/07/09 04:07:48;;;;;;;;;;;14.50;69.30;;;;;;5047896;28;20266;-71
2023/07/09 04:10:14;;;;;;;;;;;14.50;69.30;;;;;;5049368;28;19919;-71
2023/07/09 04:12:41;;;;;;;;;;;14.50;69.30;;;;;;5047211;28;21589;-71
2023/07/09 04:15:07;;;;;;;;;;;14.50;69.20;;;;;;5047801;28;19920;-71
2023/07/09 04:17:33;;;;;;;;;;;14.50;69.30;;;;;;5049007;28;20431;-71
2023/07/09 04:19:59;;;;;;;;;;;14.40;69.30;;;;;;5047526;28;19917;-71
2023/07/09 04:22:25;;;;;;;;;;;14.40;69.30;;;;;;5049093;28;19913;-71
2023/07/09 04:24:52;;;;;;;;;;;14.40;69.30;;;;;;5049118;28;19913;-71
2023/07/09 04:27:18;;;;;;;;;;;14.30;69.40;;;;;;5048845;28;19916;-71
2023/07/09 04:29:43;;;;;;;;;;;14.30;69.40;;;;;;5048863;28;19915;-71
2023/07/09 04:32:13;;;;;;;;;;;14.40;70.00;;;;;;5048792;28;19937;-71
2023/07/09 04:34:39;;;;;;;;;;;14.40;69.30;;;;;;5048736;28;20405;-71
2023/07/09 04:37:06;;;;;;;;;;;14.30;69.40;;;;;;5048735;28;19913;-71
2023/07/09 04:39:32;;;;;;;;;;;14.40;69.60;;;;;;5048497;28;20261;-71
2023/07/09 04:41:57;;;;;;;;;;;14.40;69.60;;;;;;5048729;28;19916;-71
2023/07/09 04:44:23;;;;;;;;;;;14.50;69.60;;;;;;5048606;28;20331;-71
2023/07/09 04:46:49;;;;;;;;;;;14.70;69.50;;;;;;5048480;28;19913;-71
2023/07/09 04:49:14;;;;;;;;;;;14.70;69.40;;;;;;5048418;28;19978;-71
2023/07/09 04:51:40;;;;;;;;;;;14.80;69.40;;;;;;5048510;28;19947;-71
2023/07/09 04:54:05;;;;;;;;;;;14.90;69.30;;;;;;5048511;28;20285;-71
2023/07/09 04:56:31;;;;;;;;;;;15.00;69.20;;;;;;5048396;28;19916;-71
2023/07/09 04:58:57;;;;;;;;;;;15.10;69.30;;;;;;5048226;28;20324;-71
2023/07/09 05:01:23;;;;;;;;;;;15.20;69.20;;;;;;5048518;28;19939;-71
2023/07/09 05:03:48;;;;;;;;;;;15.30;69.10;;;;;;5048296;28;19916;-71
2023/07/09 05:06:14;;;;;;;;;;;15.30;69.10;;;;;;5048302;28;19917;-71
2023/07/09 05:08:41;;;;;;;;;;;15.40;69.30;;;;;;5047244;28;20003;-71
2023/07/09 05:11:07;;;;;;;;;;;15.50;69.30;;;;;;5048303;28;20316;-71
2023/07/09 05:13:33;;;;;;;;;;;15.50;69.20;;;;;;5048213;28;19915;-71
2023/07/09 05:15:58;;;;;;;;;;;15.60;69.20;;;;;;5048316;28;19917;-71
2023/07/09 05:18:24;;;;;;;;;;;15.70;69.40;;;;;;5047845;28;19920;-71
2023/07/09 05:20:49;;;;;;;;;;;15.70;69.50;;;;;;5048031;28;20012;-71
2023/07/09 05:23:15;;;;;;;;;;;15.90;69.40;;;;;;5047931;28;19920;-71
2023/07/09 05:25:40;;;;;;;;;;;16.10;69.40;;;;;;5047988;28;19909;-71
2023/07/09 05:28:06;;;;;;;;;;;16.10;69.30;;;;;;5047846;28;19924;-71
2023/07/09 05:30:32;;;;;;;;;;;16.30;69.30;;;;;;5047906;28;19913;-71
2023/07/09 05:32:59;;;;;;;;;;;16.30;69.20;;;;;;5047846;28;20386;-71
2023/07/09 05:35:25;;;;;;;;;;;16.40;69.30;;;;;;5047911;28;19913;-71
2023/07/09 05:37:51;;;;;;;;;;;16.60;69.30;;;;;;5047635;28;20381;-71
2023/07/09 05:40:17;;;;;;;;;;;16.80;69.30;;;;;;5046268;28;20339;-71
2023/07/09 05:42:42;;;;;;;;;;;16.90;69.30;;;;;;5047712;28;20036;-71
2023/07/09 05:45:08;;;;;;;;;;;17.00;69.30;;;;;;5046762;28;19913;-71
2023/07/09 05:47:34;;;;;;;;;;;17.20;69.40;;;;;;5047640;28;20436;-71
2023/07/09 05:49:59;;;;;;;;;;;17.30;69.40;;;;;;5047661;28;19998;-71
2023/07/09 05:52:25;;;;;;;;;;;17.60;69.70;;;;;;5046409;28;19920;-71
2023/07/09 05:54:51;;;;;;;;;;;18.20;69.30;;;;;;5047604;28;19917;-71
2023/07/09 05:57:16;;;;;;;;;;;18.60;68.70;;;;;;5048021;28;19909;-71
2023/07/09 05:59:42;;;;;;;;;;;18.80;68.50;;;;;;5046098;28;19970;-71
2023/07/09 06:02:11;;;;;;;;;;;19.00;68.40;;;;;;5047437;28;19964;-71
2023/07/09 06:04:37;;;;;;;;;;;19.20;68.50;;;;;;5047537;28;19970;-71
2023/07/09 06:07:03;;;;;;;;;;;19.40;68.50;;;;;;5046303;28;19917;-71
2023/07/09 06:09:29;;;;;;;;;;;19.50;68.50;;;;;;5047508;28;20353;-71
2023/07/09 06:11:55;;;;;;;;;;;19.60;68.50;;;;;;5047373;28;20054;-71
2023/07/09 06:14:21;;;;;;;;;;;19.50;68.60;;;;;;5047313;28;20503;-71
2023/07/09 06:16:46;;;;;;;;;;;19.40;68.90;;;;;;5047364;28;19917;-71
2023/07/09 06:19:12;;;;;;;;;;;19.30;69.20;;;;;;5046137;28;19932;-71
2023/07/09 06:21:38;;;;;;;;;;;19.30;69.30;;;;;;5050900;28;19927;-71
2023/07/09 06:24:05;;;;;;;;;;;19.30;69.40;;;;;;5051229;28;20378;-71
2023/07/09 06:26:30;;;;;;;;;;;19.40;69.40;;;;;;5051636;28;20277;-71
2023/07/09 06:28:56;;;;;;;;;;;19.30;69.50;;;;;;5033012;28;19922;-71
2023/07/09 06:31:24;;;;;;;;;;;19.20;69.40;;;;;;5051038;28;19974;-71
2023/07/09 06:33:50;;;;;;;;;;;19.30;69.40;;;;;;5051069;28;19920;-71
2023/07/09 06:36:16;;;;;;;;;;;19.20;69.50;;;;;;5050922;28;19909;-71
2023/07/09 06:38:42;;;;;;;;;;;19.30;69.70;;;;;;5050684;28;19928;-72
2023/07/09 06:41:07;;;;;;;;;;;19.40;69.70;;;;;;5049464;28;20357;-71
2023/07/09 06:43:34;;;;;;;;;;;19.50;69.60;;;;;;5050755;28;20369;-71
2023/07/09 06:46:00;;;;;;;;;;;19.60;69.60;;;;;;5050820;28;19917;-71
2023/07/09 06:48:27;;;;;;;;;;;19.80;69.50;;;;;;5050192;28;19917;-71
2023/07/09 06:50:53;;;;;;;;;;;20.00;69.40;;;;;;5050647;28;20421;-71
2023/07/09 06:53:20;;;;;;;;;;;20.20;69.40;;;;;;5049268;28;19921;-72
2023/07/09 06:55:46;;;;;;;;;;;20.70;69.50;;;;;;5050388;28;19954;-71
2023/07/09 06:58:11;;;;;;;;;;;21.50;69.10;;;;;;5050199;28;20381;-71
2023/07/09 07:00:37;;;;;;;;;;;22.40;68.40;;;;;;5050301;28;19955;-72
2023/07/09 07:03:03;;;;;;;;;;;22.90;68.10;;;;;;5050226;28;19925;-71
2023/07/09 07:05:29;;;;;;;;;;;23.90;68.30;;;;;;5050166;28;19913;-71
2023/07/09 07:07:54;;;;;;;;;;;25.10;67.90;;;;;;5049969;28;19913;-71
2023/07/09 07:10:20;;;;;;;;;;;26.50;67.70;;;;;;5050193;28;19955;-72
2023/07/09 07:12:47;;;;;;;;;;;27.40;66.70;;;;;;5050059;28;19916;-72
2023/07/09 07:15:14;;;;;;;;;;;27.90;66.40;;;;;;5050020;28;19921;-71
2023/07/09 07:17:40;;;;;;;;;;;28.50;66.30;;;;;;5049907;28;19963;-72
2023/07/09 07:20:06;;;;;;;;;;;28.60;65.90;;;;;;5049899;28;20300;-72
2023/07/09 07:22:31;;;;;;;;;;;28.40;66.00;;;;;;5049831;28;20377;-72
2023/07/09 07:24:57;;;;;;;;;;;28.40;66.70;;;;;;5049915;28;19944;-71
2023/07/09 07:27:22;;;;;;;;;;;28.90;67.00;;;;;;5049556;28;19912;-72
2023/07/09 07:29:48;;;;;;;;;;;29.40;66.80;;;;;;5049771;28;19913;-71
2023/07/09 07:32:13;;;;;;;;;;;29.60;66.40;;;;;;5048326;28;19924;-69
2023/07/09 07:34:39;;;;;;;;;;;29.50;67.20;;;;;;5049616;28;19928;-72
2023/07/09 07:37:05;;;;;;;;;;;29.60;66.90;;;;;;5049474;28;20003;-72
2023/07/09 07:39:31;;;;;;;;;;;28.90;66.30;;;;;;5049254;28;19921;-71
2023/07/09 07:41:57;;;;;;;;;;;28.00;66.90;;;;;;5049503;28;19913;-72
2023/07/09 07:44:23;;;;;;;;;;;27.30;67.30;;;;;;5049310;28;20003;-71
2023/07/09 07:46:49;;;;;;;;;;;26.40;67.60;;;;;;5049401;28;19921;-71
2023/07/09 07:49:14;;;;;;;;;;;25.50;67.80;;;;;;5049338;28;20395;-71
2023/07/09 07:51:40;;;;;;;;;;;24.60;68.10;;;;;;5049164;28;20351;-71
2023/07/09 07:54:08;;;;;;;;;;;23.70;68.60;;;;;;5049273;28;19963;-71
2023/07/09 07:56:34;;;;;;;;;;;23.00;69.20;;;;;;5047725;28;19924;-71
2023/07/09 07:58:59;;;;;;;;;;;22.40;69.60;;;;;;5049012;28;20300;-72
2023/07/09 08:01:26;;;;;;;;;;;22.00;69.70;;;;;;5048902;28;20008;-71
2023/07/09 08:03:51;;;;;;;;;;;21.60;69.90;;;;;;5049205;28;19916;-71
2023/07/09 08:06:17;;;;;;;;;;;21.20;69.90;;;;;;5047757;28;19940;-71
2023/07/09 08:08:42;;;;;;;;;;;20.90;70.00;;;;;;5048849;28;19996;-71
2023/07/09 08:11:09;;;;;;;;;;;20.50;69.90;;;;;;5048960;28;20269;-71
2023/07/09 08:13:36;;;;;;;;;;;20.10;69.40;;;;;;5048897;28;19913;-71
2023/07/09 08:16:01;;;;;;;;;;;19.60;69.70;;;;;;5048992;28;19999;-71
2023/07/09 08:18:27;;;;;;;;;;;19.40;70.10;;;;;;5048787;28;20003;-71
2023/07/09 08:20:52;;;;;;;;;;;19.30;70.50;;;;;;5048833;28;19923;-70
2023/07/09 08:23:18;;;;;;;;;;;19.40;70.40;;;;;;5048653;28;20182;-71
2023/07/09 08:25:44;;;;;;;;;;;19.40;70.10;;;;;;5047231;28;19986;-71
2023/07/09 08:28:09;;;;;;;;;;;19.50;70.10;;;;;;5048394;28;19917;-71
2023/07/09 08:30:36;;;;;;;;;;;19.50;70.10;;;;;;5048177;28;20008;-71
2023/07/09 08:33:01;;;;;;;;;;;19.50;69.80;;;;;;5047112;28;19909;-71
2023/07/09 08:35:27;;;;;;;;;;;19.50;69.60;;;;;;5048469;28;19970;-71
2023/07/09 08:37:52;;;;;;;;;;;19.50;69.50;;;;;;5048357;28;19917;-72
2023/07/09 08:40:18;;;;;;;;;;;19.40;69.40;;;;;;5046963;28;20042;-72
2023/07/09 08:42:48;;;;;;;;;;;19.30;69.60;;;;;;5048166;28;19913;-72
2023/07/09 08:45:26;;;;;;;;;;;19.20;69.60;;;;;;5048349;28;19909;-72
2023/07/09 08:48:06;;;;;;;;;;;18.90;69.10;;;;;;5048059;28;19909;-72
2023/07/09 08:50:38;;;;;;;;;;;18.40;69.30;;;;;;5048206;28;19948;-72
2023/07/09 08:53:04;;;;;;;;;;;18.00;69.80;;;;;;5048156;28;19924;-72
2023/07/09 08:55:38;;;;;;;;;;;17.90;70.30;;;;;;5048042;28;19909;-72
2023/07/09 08:58:05;;;;;;;;;;;18.10;70.80;;;;;;5048045;28;19931;-72
2023/07/09 09:00:39;;;;;;;;;;;18.80;71.90;;;;;;5047810;28;20019;-72
2023/07/09 09:03:10;;;;;;;;;;;20.10;71.60;;;;;;5047965;28;19928;-73
2023/07/09 09:05:39;;;;;;;;;;;21.60;71.20;;;;;;5047608;28;19913;-73
2023/07/09 09:08:04;;;;;;;;;;;22.60;69.90;;;;;;5047948;28;19909;-73
2023/07/09 09:10:38;;;;;;;;;;;23.00;69.10;;;;;;5047941;28;19963;-73
2023/07/09 09:13:09;;;;;;;;;;;23.40;69.60;;;;;;5047797;28;19912;-73
2023/07/09 09:15:35;;;;;;;;;;;24.10;69.50;;;;;;5047079;28;19955;-73
2023/07/09 09:18:14;;;;;;;;;;;24.40;68.80;;;;;;5047399;28;20331;-73
2023/07/09 09:20:40;;;;;;;;;;;24.00;68.40;;;;;;5047802;28;19928;-72
2023/07/09 09:23:06;;;;;;;;;;;23.70;68.90;;;;;;5047598;28;19935;-72
2023/07/09 09:25:32;;;;;;;;;;;23.10;67.90;;;;;;5047758;28;19908;-72
2023/07/09 09:27:59;;;;;;;;;;;22.30;67.80;;;;;;5047604;28;19909;-72
2023/07/09 09:30:25;;;;;;;;;;;21.50;68.10;;;;;;5047492;28;19961;-72
2023/07/09 09:32:55;;;;;;;;;;;20.80;68.40;;;;;;5047378;28;20369;-72
2023/07/09 09:35:25;;;;;;;;;;;20.10;68.80;;;;;;5046171;28;19908;-73
2023/07/09 09:37:52;;;;;;;;;;;19.60;69.10;;;;;;5047904;28;19999;-73
2023/07/09 09:40:22;;;;;;;;;;;19.30;69.70;;;;;;5047788;28;20333;-72
2023/07/09 09:42:48;;;;;;;;;;;19.60;71.50;;;;;;5047508;28;20328;-73
2023/07/09 09:45:15;;;;;;;;;;;20.70;72.10;;;;;;5047479;28;19909;-72
2023/07/09 09:47:41;;;;;;;;;;;22.00;72.10;;;;;;5046031;28;20288;-72
2023/07/09 09:50:09;;;;;;;;;;;23.70;71.60;;;;;;5047140;28;20017;-73
2023/07/09 09:52:35;;;;;;;;;;;25.20;71.10;;;;;;5047148;28;19915;-73
2023/07/09 09:55:22;;;;;;;;;;;26.70;70.80;;;;;;5048313;28;19909;-73
2023/07/09 09:57:52;;;;;;;;;;;28.00;70.70;;;;;;5051227;28;19940;-73
2023/07/09 10:00:20;;;;;;;;;;;29.20;70.90;;;;;;5051265;28;20401;-73
2023/07/09 10:02:46;;;;;;;;;;;30.20;70.80;;;;;;5050879;28;19978;-73
2023/07/09 10:05:15;;;;;;;;;;;31.20;70.80;;;;;;5051026;28;19909;-73
2023/07/09 10:07:52;;;;;;;;;;;31.70;70.20;;;;;;5050781;28;20285;-73
2023/07/09 10:10:21;;;;;;;;;;;31.90;69.80;;;;;;5050973;28;19909;-73
2023/07/09 10:12:51;;;;;;;;;;;32.20;70.40;;;;;;5050837;28;19913;-73
2023/07/09 10:15:35;;;;;;;;;;;32.40;70.20;;;;;;5050696;28;20416;-73
2023/07/09 10:18:02;;;;;;;;;;;32.40;70.80;;;;;;5050995;28;19912;-73
2023/07/09 10:20:31;;;;;;;;;;;32.50;71.00;;;;;;5050892;28;20300;-73
2023/07/09 10:22:59;;;;;;;;;;;32.50;71.00;;;;;;5050931;28;19908;-73
2023/07/09 10:25:34;;;;;;;;;;;32.70;71.20;;;;;;5050679;28;19931;-73
2023/07/09 10:28:03;;;;;;;;;;;32.40;70.50;;;;;;5050799;28;20000;-73
2023/07/09 10:30:47;;;;;;;;;;;32.50;71.60;;;;;;5050586;28;19948;-73
2023/07/09 10:33:14;;;;;;;;;;;33.10;71.70;;;;;;5050344;28;20021;-73
2023/07/09 10:35:51;;;;;;;;;;;33.30;71.40;;;;;;5050148;28;19970;-73
2023/07/09 10:38:28;;;;;;;;;;;33.30;71.40;;;;;;5050279;28;19981;-73
2023/07/09 10:40:55;;;;;;;;;;;33.50;71.70;;;;;;5050393;28;19924;-73
2023/07/09 10:43:41;;;;;;;;;;;33.60;72.00;;;;;;5050412;28;19931;-73
2023/07/09 10:46:20;;;;;;;;;;;33.40;71.80;;;;;;5049240;28;20003;-73
2023/07/09 10:48:48;;;;;;;;;;;33.40;71.60;;;;;;5050008;28;19909;-73
2023/07/09 10:51:18;;;;;;;;;;;33.30;71.50;;;;;;5049930;28;19936;-72
2023/07/09 10:53:50;;;;;;;;;;;32.70;70.20;;;;;;5049964;28;19959;-73
2023/07/09 10:56:17;;;;;;;;;;;31.90;70.90;;;;;;5050300;28;19915;-73
2023/07/09 10:59:01;;;;;;;;;;;31.50;70.70;;;;;;5049597;28;19921;-72
2023/07/09 11:01:39;;;;;;;;;;;30.60;70.00;;;;;;5049653;28;19920;-73
2023/07/09 11:04:25;;;;;;;;;;;29.40;69.90;;;;;;5049890;28;19952;-72
2023/07/09 11:06:53;;;;;;;;;;;28.50;70.10;;;;;;5048908;28;19920;-72
2023/07/09 11:09:24;;;;;;;;;;;27.60;70.40;;;;;;5049317;28;19916;-72
2023/07/09 11:11:52;;;;;;;;;;;27.10;70.70;;;;;;5049386;28;19982;-72
2023/07/09 11:14:23;;;;;;;;;;;26.70;70.80;;;;;;5049342;28;19913;-73
2023/07/09 11:16:49;;;;;;;;;;;26.50;71.20;;;;;;5049207;28;19913;-72
2023/07/09 11:19:16;;;;;;;;;;;26.90;72.40;;;;;;5047811;28;19940;-72
2023/07/09 11:22:17;;;;;;;;;;;27.90;72.90;;;;;;5049158;28;19917;-72
2023/07/09 11:24:50;;;;;;;;;;;29.00;73.00;;;;;;4987580;28;19968;-72
2023/07/09 11:27:20;;;;;;;;;;;30.10;72.30;;;;;;5038933;28;19909;-73
2023/07/09 11:29:47;;;;;;;;;;;30.70;72.10;;;;;;5048957;28;19935;-73
2023/07/09 11:32:18;;;;;;;;;;;30.70;71.60;;;;;;5049223;28;19916;-73
2023/07/09 11:34:46;;;;;;;;;;;30.10;70.50;;;;;;5049276;28;19909;-72
2023/07/09 11:37:13;;;;;;;;;;;29.00;69.90;;;;;;5049012;28;19920;-73
2023/07/09 11:39:38;;;;;;;;;;;27.90;70.50;;;;;;5048642;28;20009;-72
2023/07/09 11:42:22;;;;;;;;;;;27.60;71.90;;;;;;5048915;28;20007;-73
2023/07/09 11:44:49;;;;;;;;;;;28.10;72.90;;;;;;5048777;28;20000;-73
2023/07/09 11:47:17;;;;;;;;;;;29.00;72.80;;;;;;5048437;28;19928;-73
2023/07/09 11:49:46;;;;;;;;;;;29.30;71.90;;;;;;5048823;28;20295;-73
2023/07/09 11:52:13;;;;;;;;;;;29.40;71.80;;;;;;5048544;28;20338;-73
2023/07/09 11:54:38;;;;;;;;;;;29.70;72.50;;;;;;5048458;28;20009;-73
2023/07/09 11:57:11;;;;;;;;;;;30.10;72.50;;;;;;5048272;28;19939;-73
2023/07/09 11:59:41;;;;;;;;;;;30.80;72.80;;;;;;5049065;28;19920;-73
2023/07/09 12:02:13;;;;;;;;;;;31.60;72.90;;;;;;5048481;28;20440;-73
2023/07/09 12:04:38;;;;;;;;;;;31.90;71.90;;;;;;5048459;28;19966;-73
2023/07/09 12:07:06;;;;;;;;;;;31.60;71.60;;;;;;5048382;28;20003;-73
2023/07/09 12:09:35;;;;;;;;;;;31.90;72.30;;;;;;5048427;28;19916;-73
2023/07/09 12:12:00;;;;;;;;;;;32.10;71.50;;;;;;5048172;28;19909;-72
2023/07/09 12:14:26;;;;;;;;;;;31.70;71.60;;;;;;5047733;28;19917;-72
2023/07/09 12:16:53;;;;;;;;;;;31.80;71.90;;;;;;5046999;28;19913;-73
2023/07/09 12:19:19;;;;;;;;;;;31.80;71.70;;;;;;5047311;28;20423;-73
2023/07/09 12:21:46;;;;;;;;;;;31.50;71.20;;;;;;5047886;28;19916;-73
2023/07/09 12:24:14;;;;;;;;;;;30.80;70.70;;;;;;5048065;28;20323;-73
2023/07/09 12:26:41;;;;;;;;;;;30.20;71.10;;;;;;5047544;28;19955;-73
2023/07/09 12:29:08;;;;;;;;;;;29.60;71.00;;;;;;5047851;28;19913;-73
2023/07/09 12:31:34;;;;;;;;;;;29.10;71.00;;;;;;5047723;28;19913;-73
2023/07/09 12:34:00;;;;;;;;;;;28.70;71.60;;;;;;5047516;28;19963;-73
2023/07/09 12:36:26;;;;;;;;;;;28.90;72.00;;;;;;5047632;28;20357;-73
2023/07/09 12:38:53;;;;;;;;;;;29.50;72.70;;;;;;5047727;28;20373;-73
2023/07/09 12:41:38;;;;;;;;;;;30.10;72.70;;;;;;5049069;28;19939;-73
2023/07/09 12:44:04;;;;;;;;;;;30.40;72.20;;;;;;5049842;28;19915;-72
2023/07/09 12:46:30;;;;;;;;;;;30.80;72.20;;;;;;5049430;28;19908;-71
2023/07/09 12:48:56;;;;;;;;;;;31.20;72.30;;;;;;5047613;28;19909;-71
2023/07/09 12:51:24;;;;;;;;;;;31.40;72.10;;;;;;5047491;28;19917;-72
2023/07/09 12:54:08;;;;;;;;;;;31.60;71.80;;;;;;5047213;28;20259;-71
2023/07/09 12:56:34;;;;;;;;;;;31.80;71.90;;;;;;5047130;28;19909;-72
2023/07/09 12:59:01;;;;;;;;;;;32.10;72.00;;;;;;5046763;28;19916;-72
2023/07/09 13:01:27;;;;;;;;;;;31.70;70.80;;;;;;5047494;28;20012;-73
2023/07/09 13:03:56;;;;;;;;;;;31.00;70.60;;;;;;5047497;28;20407;-71
2023/07/09 13:06:27;;;;;;;;;;;30.40;70.80;;;;;;5047520;28;19952;-71
2023/07/09 13:08:55;;;;;;;;;;;30.30;71.60;;;;;;5046900;28;19908;-71
2023/07/09 13:11:21;;;;;;;;;;;30.30;71.40;;;;;;5046667;28;19908;-71
2023/07/09 13:13:54;;;;;;;;;;;30.30;71.60;;;;;;5046802;28;19913;-71
2023/07/09 13:16:19;;;;;;;;;;;30.20;71.20;;;;;;5047060;28;19966;-71
2023/07/09 13:18:45;;;;;;;;;;;29.90;71.30;;;;;;5046756;28;19917;-71
2023/07/09 13:21:15;;;;;;;;;;;29.40;70.90;;;;;;5046511;28;19941;-70
2023/07/09 13:23:42;;;;;;;;;;;29.00;70.90;;;;;;5046499;28;19920;-71
2023/07/09 13:26:08;;;;;;;;;;;28.60;70.70;;;;;;5046740;28;20019;-71
2023/07/09 13:28:34;;;;;;;;;;;28.20;70.60;;;;;;5046414;28;19995;-70
2023/07/09 13:31:08;;;;;;;;;;;27.90;70.90;;;;;;5045821;28;19916;-73
2023/07/09 13:33:34;;;;;;;;;;;27.80;71.20;;;;;;5045385;28;20485;-74
2023/07/09 13:36:00;;;;;;;;;;;27.80;71.30;;;;;;5046956;28;20009;-74
2023/07/09 13:38:25;;;;;;;;;;;27.90;71.30;;;;;;5046741;28;19913;-74
2023/07/09 13:40:53;;;;;;;;;;;28.00;71.00;;;;;;5046839;28;19928;-74
2023/07/09 13:43:39;;;;;;;;;;;28.10;71.00;;;;;;5046710;28;19912;-74
2023/07/09 13:46:06;;;;;;;;;;;28.30;70.80;;;;;;5046414;28;19915;-74
2023/07/09 13:48:33;;;;;;;;;;;28.20;70.20;;;;;;5046472;28;19955;-74
2023/07/09 13:50:58;;;;;;;;;;;27.80;69.90;;;;;;5046502;28;19916;-74
2023/07/09 13:53:26;;;;;;;;;;;27.40;70.00;;;;;;5046537;28;19999;-74
2023/07/09 13:55:52;;;;;;;;;;;26.90;70.30;;;;;;5046309;28;19909;-74
2023/07/09 13:58:20;;;;;;;;;;;26.60;70.60;;;;;;5044604;28;19913;-74
2023/07/09 14:00:46;;;;;;;;;;;26.40;70.90;;;;;;5044912;28;19913;-75
2023/07/09 14:03:18;;;;;;;;;;;26.50;71.10;;;;;;5044861;28;19935;-74
2023/07/09 14:05:44;;;;;;;;;;;26.70;70.90;;;;;;5045059;28;20334;-73
2023/07/09 14:08:10;;;;;;;;;;;26.90;70.60;;;;;;5045868;28;19951;-74
2023/07/09 14:10:35;;;;;;;;;;;26.90;70.10;;;;;;5046056;28;20061;-74
2023/07/09 14:13:02;;;;;;;;;;;27.00;69.80;;;;;;5046346;28;19992;-74
2023/07/09 14:15:27;;;;;;;;;;;26.90;69.50;;;;;;5046043;28;19909;-74
2023/07/09 14:17:54;;;;;;;;;;;26.60;69.40;;;;;;5044815;28;20255;-74